sensor_id;sensor_type;location;lat;lon;timestamp;P1;durP1;ratioP1;P2;durP2;ratioP2
65755;SDS011;52489;47.502;18.940;2022-11-18T00:00:36;3.90;;;2.67;;
65755;SDS011;52489;47.502;18.940;2022-11-18T00:01:39;4.05;;;2.17;;
65755;SDS011;52489;47.502;18.940;2022-11-18T00:02:42;3.35;;;1.85;;
65755;SDS011;52489;47.502;18.940;2022-11-18T00:03:45;4.55;;;2.33;;
65755;SDS011;52489;47.502;18.940;2022-11-18T00:04:48;4.05;;;2.20;;
65755;SDS011;52489;47.502;18.940;2022-11-18T00:05:52;6.07;;;2.83;;
65755;SDS011;52489;47.502;18.940;2022-11-18T00:06:56;4.00;;;2.15;;
65755;SDS011;52489;47.502;18.940;2022-11-18T00:07:59;4.72;;;2.47;;
65755;SDS011;52489;47.502;18.940;2022-11-18T00:09:02;3.62;;;2.05;;
65755;SDS011;52489;47.502;18.940;2022-11-18T00:10:05;2.75;;;2.12;;
65755;SDS011;52489;47.502;18.940;2022-11-18T00:11:08;4.87;;;2.05;;
65755;SDS011;52489;47.502;18.940;2022-11-18T00:12:36;4.62;;;2.53;;
65755;SDS011;52489;47.502;18.940;2022-11-18T00:13:57;5.82;;;2.70;;
65755;SDS011;52489;47.502;18.940;2022-11-18T00:15:19;4.20;;;2.97;;
65755;SDS011;52489;47.502;18.940;2022-11-18T00:16:32;3.22;;;2.33;;
65755;SDS011;52489;47.502;18.940;2022-11-18T00:17:36;4.53;;;2.62;;
65755;SDS011;52489;47.502;18.940;2022-11-18T00:18:38;6.12;;;3.17;;
65755;SDS011;52489;47.502;18.940;2022-11-18T00:19:41;5.35;;;2.30;;
65755;SDS011;52489;47.502;18.940;2022-11-18T00:20:44;4.35;;;2.80;;
65755;SDS011;52489;47.502;18.940;2022-11-18T00:21:47;5.05;;;2.65;;
65755;SDS011;52489;47.502;18.940;2022-11-18T00:22:50;3.50;;;2.53;;
65755;SDS011;52489;47.502;18.940;2022-11-18T00:23:53;6.45;;;2.83;;
65755;SDS011;52489;47.502;18.940;2022-11-18T00:24:56;7.43;;;3.50;;
65755;SDS011;52489;47.502;18.940;2022-11-18T00:26:06;5.25;;;2.40;;
65755;SDS011;52489;47.502;18.940;2022-11-18T00:27:14;2.83;;;1.90;;
65755;SDS011;52489;47.502;18.940;2022-11-18T00:28:16;5.12;;;2.67;;
65755;SDS011;52489;47.502;18.940;2022-11-18T00:29:20;2.25;;;1.90;;
65755;SDS011;52489;47.502;18.940;2022-11-18T00:30:23;5.55;;;2.50;;
65755;SDS011;52489;47.502;18.940;2022-11-18T00:31:26;4.43;;;2.65;;
65755;SDS011;52489;47.502;18.940;2022-11-18T00:32:29;3.55;;;2.25;;
65755;SDS011;52489;47.502;18.940;2022-11-18T00:33:32;5.15;;;3.37;;
65755;SDS011;52489;47.502;18.940;2022-11-18T00:34:34;3.75;;;2.47;;
65755;SDS011;52489;47.502;18.940;2022-11-18T00:35:37;4.45;;;2.78;;
65755;SDS011;52489;47.502;18.940;2022-11-18T00:36:41;3.78;;;2.45;;
65755;SDS011;52489;47.502;18.940;2022-11-18T00:37:44;5.62;;;2.40;;
65755;SDS011;52489;47.502;18.940;2022-11-18T00:38:47;5.35;;;3.15;;
65755;SDS011;52489;47.502;18.940;2022-11-18T00:39:50;4.40;;;3.08;;
65755;SDS011;52489;47.502;18.940;2022-11-18T00:42:03;2.93;;;1.70;;
65755;SDS011;52489;47.502;18.940;2022-11-18T00:43:24;2.30;;;1.90;;
65755;SDS011;52489;47.502;18.940;2022-11-18T00:44:27;4.25;;;2.35;;
65755;SDS011;52489;47.502;18.940;2022-11-18T00:45:30;6.78;;;3.05;;
65755;SDS011;52489;47.502;18.940;2022-11-18T00:46:34;8.00;;;3.30;;
65755;SDS011;52489;47.502;18.940;2022-11-18T00:47:36;5.18;;;2.60;;
65755;SDS011;52489;47.502;18.940;2022-11-18T00:48:39;5.05;;;2.62;;
65755;SDS011;52489;47.502;18.940;2022-11-18T00:49:42;4.20;;;2.65;;
65755;SDS011;52489;47.502;18.940;2022-11-18T00:50:46;4.25;;;2.17;;
65755;SDS011;52489;47.502;18.940;2022-11-18T00:51:50;3.33;;;2.60;;
65755;SDS011;52489;47.502;18.940;2022-11-18T00:52:53;3.05;;;1.87;;
65755;SDS011;52489;47.502;18.940;2022-11-18T00:53:56;4.72;;;2.00;;
65755;SDS011;52489;47.502;18.940;2022-11-18T00:54:59;3.33;;;2.03;;
65755;SDS011;52489;47.502;18.940;2022-11-18T00:56:01;2.83;;;1.80;;
65755;SDS011;52489;47.502;18.940;2022-11-18T00:57:05;3.97;;;2.20;;
65755;SDS011;52489;47.502;18.940;2022-11-18T00:58:08;2.47;;;1.90;;
65755;SDS011;52489;47.502;18.940;2022-11-18T00:59:11;3.95;;;2.08;;
65755;SDS011;52489;47.502;18.940;2022-11-18T01:00:14;7.00;;;3.17;;
65755;SDS011;52489;47.502;18.940;2022-11-18T01:01:17;3.28;;;1.85;;
65755;SDS011;52489;47.502;18.940;2022-11-18T01:02:20;3.10;;;2.45;;
65755;SDS011;52489;47.502;18.940;2022-11-18T01:03:23;4.55;;;2.28;;
65755;SDS011;52489;47.502;18.940;2022-11-18T01:04:27;3.72;;;2.00;;
65755;SDS011;52489;47.502;18.940;2022-11-18T01:05:29;3.95;;;2.33;;
65755;SDS011;52489;47.502;18.940;2022-11-18T01:06:32;4.55;;;2.37;;
65755;SDS011;52489;47.502;18.940;2022-11-18T01:07:35;2.87;;;1.75;;
65755;SDS011;52489;47.502;18.940;2022-11-18T01:08:38;3.78;;;2.17;;
65755;SDS011;52489;47.502;18.940;2022-11-18T01:09:42;2.15;;;1.70;;
65755;SDS011;52489;47.502;18.940;2022-11-18T01:10:45;3.12;;;1.95;;
65755;SDS011;52489;47.502;18.940;2022-11-18T01:11:50;3.72;;;2.20;;
65755;SDS011;52489;47.502;18.940;2022-11-18T01:13:12;6.55;;;3.05;;
65755;SDS011;52489;47.502;18.940;2022-11-18T01:14:23;4.32;;;2.10;;
65755;SDS011;52489;47.502;18.940;2022-11-18T01:15:27;3.55;;;2.25;;
65755;SDS011;52489;47.502;18.940;2022-11-18T01:16:30;3.28;;;2.33;;
65755;SDS011;52489;47.502;18.940;2022-11-18T01:17:33;5.82;;;2.25;;
65755;SDS011;52489;47.502;18.940;2022-11-18T01:18:35;3.30;;;2.15;;
65755;SDS011;52489;47.502;18.940;2022-11-18T01:19:38;3.85;;;1.75;;
65755;SDS011;52489;47.502;18.940;2022-11-18T01:20:42;5.10;;;2.10;;
65755;SDS011;52489;47.502;18.940;2022-11-18T01:21:46;3.95;;;2.05;;
65755;SDS011;52489;47.502;18.940;2022-11-18T01:22:55;1.70;;;1.60;;
65755;SDS011;52489;47.502;18.940;2022-11-18T01:23:58;5.05;;;2.15;;
65755;SDS011;52489;47.502;18.940;2022-11-18T01:25:01;4.47;;;2.37;;
65755;SDS011;52489;47.502;18.940;2022-11-18T01:26:04;2.55;;;2.08;;
65755;SDS011;52489;47.502;18.940;2022-11-18T01:27:09;4.28;;;2.70;;
65755;SDS011;52489;47.502;18.940;2022-11-18T01:28:13;3.35;;;1.85;;
65755;SDS011;52489;47.502;18.940;2022-11-18T01:29:25;2.72;;;1.90;;
65755;SDS011;52489;47.502;18.940;2022-11-18T01:30:28;3.75;;;1.70;;
65755;SDS011;52489;47.502;18.940;2022-11-18T01:31:34;3.15;;;2.17;;
65755;SDS011;52489;47.502;18.940;2022-11-18T01:33:00;3.08;;;1.83;;
65755;SDS011;52489;47.502;18.940;2022-11-18T01:34:03;4.03;;;3.03;;
65755;SDS011;52489;47.502;18.940;2022-11-18T01:35:07;4.03;;;1.83;;
65755;SDS011;52489;47.502;18.940;2022-11-18T01:36:17;2.55;;;2.08;;
65755;SDS011;52489;47.502;18.940;2022-11-18T01:37:22;2.00;;;1.83;;
65755;SDS011;52489;47.502;18.940;2022-11-18T01:38:25;5.32;;;2.60;;
65755;SDS011;52489;47.502;18.940;2022-11-18T01:39:29;3.60;;;1.77;;
65755;SDS011;52489;47.502;18.940;2022-11-18T01:40:33;2.45;;;1.92;;
65755;SDS011;52489;47.502;18.940;2022-11-18T01:41:36;3.28;;;1.58;;
65755;SDS011;52489;47.502;18.940;2022-11-18T01:42:39;2.97;;;1.77;;
65755;SDS011;52489;47.502;18.940;2022-11-18T01:44:01;4.03;;;2.20;;
65755;SDS011;52489;47.502;18.940;2022-11-18T01:45:20;3.62;;;2.12;;
65755;SDS011;52489;47.502;18.940;2022-11-18T01:46:29;5.05;;;2.05;;
65755;SDS011;52489;47.502;18.940;2022-11-18T01:47:39;3.25;;;2.47;;
65755;SDS011;52489;47.502;18.940;2022-11-18T01:48:47;3.90;;;2.08;;
65755;SDS011;52489;47.502;18.940;2022-11-18T01:49:55;6.22;;;1.73;;
65755;SDS011;52489;47.502;18.940;2022-11-18T01:51:03;4.12;;;2.55;;
65755;SDS011;52489;47.502;18.940;2022-11-18T01:52:11;6.00;;;2.30;;
65755;SDS011;52489;47.502;18.940;2022-11-18T01:53:16;6.07;;;2.20;;
65755;SDS011;52489;47.502;18.940;2022-11-18T01:54:24;1.48;;;1.37;;
65755;SDS011;52489;47.502;18.940;2022-11-18T01:55:34;4.45;;;2.08;;
65755;SDS011;52489;47.502;18.940;2022-11-18T01:56:44;2.12;;;1.90;;
65755;SDS011;52489;47.502;18.940;2022-11-18T01:59:05;3.80;;;1.42;;
65755;SDS011;52489;47.502;18.940;2022-11-18T02:00:11;4.00;;;2.37;;
65755;SDS011;52489;47.502;18.940;2022-11-18T02:01:15;5.15;;;2.55;;
65755;SDS011;52489;47.502;18.940;2022-11-18T02:02:18;3.92;;;2.30;;
65755;SDS011;52489;47.502;18.940;2022-11-18T02:03:22;6.28;;;2.40;;
65755;SDS011;52489;47.502;18.940;2022-11-18T02:04:27;5.03;;;3.20;;
65755;SDS011;52489;47.502;18.940;2022-11-18T02:05:30;3.95;;;2.10;;
65755;SDS011;52489;47.502;18.940;2022-11-18T02:06:36;3.53;;;1.77;;
65755;SDS011;52489;47.502;18.940;2022-11-18T02:07:41;4.50;;;2.28;;
65755;SDS011;52489;47.502;18.940;2022-11-18T02:08:45;5.50;;;2.17;;
65755;SDS011;52489;47.502;18.940;2022-11-18T02:09:50;2.30;;;1.90;;
65755;SDS011;52489;47.502;18.940;2022-11-18T02:10:54;4.05;;;1.90;;
65755;SDS011;52489;47.502;18.940;2022-11-18T02:11:57;2.80;;;2.22;;
65755;SDS011;52489;47.502;18.940;2022-11-18T02:13:00;3.90;;;2.12;;
65755;SDS011;52489;47.502;18.940;2022-11-18T02:14:05;3.53;;;2.37;;
65755;SDS011;52489;47.502;18.940;2022-11-18T02:15:10;3.17;;;2.25;;
65755;SDS011;52489;47.502;18.940;2022-11-18T02:16:13;3.85;;;1.92;;
65755;SDS011;52489;47.502;18.940;2022-11-18T02:26:25;4.62;;;2.17;;
65755;SDS011;52489;47.502;18.940;2022-11-18T02:30:18;3.15;;;2.08;;
65755;SDS011;52489;47.502;18.940;2022-11-18T02:31:22;5.43;;;2.42;;
65755;SDS011;52489;47.502;18.940;2022-11-18T02:34:44;2.15;;;1.37;;
65755;SDS011;52489;47.502;18.940;2022-11-18T02:37:59;6.05;;;1.75;;
65755;SDS011;52489;47.502;18.940;2022-11-18T02:39:05;2.62;;;2.03;;
65755;SDS011;52489;47.502;18.940;2022-11-18T02:40:17;2.75;;;2.45;;
65755;SDS011;52489;47.502;18.940;2022-11-18T02:41:25;3.53;;;2.45;;
65755;SDS011;52489;47.502;18.940;2022-11-18T02:42:32;3.53;;;2.08;;
65755;SDS011;52489;47.502;18.940;2022-11-18T02:43:40;3.00;;;2.30;;
65755;SDS011;52489;47.502;18.940;2022-11-18T02:44:49;4.15;;;2.12;;
65755;SDS011;52489;47.502;18.940;2022-11-18T02:45:59;2.35;;;1.77;;
65755;SDS011;52489;47.502;18.940;2022-11-18T02:47:08;3.12;;;2.42;;
65755;SDS011;52489;47.502;18.940;2022-11-18T02:48:15;3.47;;;2.40;;
65755;SDS011;52489;47.502;18.940;2022-11-18T02:49:32;5.12;;;2.33;;
65755;SDS011;52489;47.502;18.940;2022-11-18T02:50:40;4.50;;;2.78;;
65755;SDS011;52489;47.502;18.940;2022-11-18T02:51:44;3.67;;;2.65;;
65755;SDS011;52489;47.502;18.940;2022-11-18T02:52:52;4.35;;;2.25;;
65755;SDS011;52489;47.502;18.940;2022-11-18T02:54:04;2.67;;;2.05;;
65755;SDS011;52489;47.502;18.940;2022-11-18T02:55:10;2.83;;;1.92;;
65755;SDS011;52489;47.502;18.940;2022-11-18T02:56:15;5.18;;;2.35;;
65755;SDS011;52489;47.502;18.940;2022-11-18T02:57:20;10.35;;;2.67;;
65755;SDS011;52489;47.502;18.940;2022-11-18T02:58:26;4.97;;;2.53;;
65755;SDS011;52489;47.502;18.940;2022-11-18T02:59:29;5.00;;;2.83;;
65755;SDS011;52489;47.502;18.940;2022-11-18T03:00:32;2.97;;;1.85;;
65755;SDS011;52489;47.502;18.940;2022-11-18T03:01:35;7.28;;;2.87;;
65755;SDS011;52489;47.502;18.940;2022-11-18T03:02:39;4.22;;;2.22;;
65755;SDS011;52489;47.502;18.940;2022-11-18T03:03:46;2.90;;;2.15;;
65755;SDS011;52489;47.502;18.940;2022-11-18T03:04:50;4.72;;;2.72;;
65755;SDS011;52489;47.502;18.940;2022-11-18T03:08:41;3.42;;;2.30;;
65755;SDS011;52489;47.502;18.940;2022-11-18T03:09:52;5.75;;;2.95;;
65755;SDS011;52489;47.502;18.940;2022-11-18T03:11:02;9.10;;;3.40;;
65755;SDS011;52489;47.502;18.940;2022-11-18T03:14:14;4.62;;;2.67;;
65755;SDS011;52489;47.502;18.940;2022-11-18T03:15:28;3.78;;;2.25;;
65755;SDS011;52489;47.502;18.940;2022-11-18T03:17:57;8.60;;;2.72;;
65755;SDS011;52489;47.502;18.940;2022-11-18T03:19:17;4.22;;;2.22;;
65755;SDS011;52489;47.502;18.940;2022-11-18T03:21:31;6.57;;;2.70;;
65755;SDS011;52489;47.502;18.940;2022-11-18T03:23:58;5.18;;;2.50;;
65755;SDS011;52489;47.502;18.940;2022-11-18T03:25:18;4.12;;;2.62;;
65755;SDS011;52489;47.502;18.940;2022-11-18T03:26:33;5.85;;;3.08;;
65755;SDS011;52489;47.502;18.940;2022-11-18T03:29:27;6.40;;;2.12;;
65755;SDS011;52489;47.502;18.940;2022-11-18T03:30:33;6.20;;;2.58;;
65755;SDS011;52489;47.502;18.940;2022-11-18T03:32:56;4.82;;;2.30;;
65755;SDS011;52489;47.502;18.940;2022-11-18T03:34:08;5.45;;;3.33;;
65755;SDS011;52489;47.502;18.940;2022-11-18T03:35:20;6.07;;;2.87;;
65755;SDS011;52489;47.502;18.940;2022-11-18T03:36:27;3.85;;;2.45;;
65755;SDS011;52489;47.502;18.940;2022-11-18T03:37:34;3.70;;;2.50;;
65755;SDS011;52489;47.502;18.940;2022-11-18T03:38:42;3.97;;;2.47;;
65755;SDS011;52489;47.502;18.940;2022-11-18T03:39:52;3.08;;;2.03;;
65755;SDS011;52489;47.502;18.940;2022-11-18T03:41:00;5.18;;;2.75;;
65755;SDS011;52489;47.502;18.940;2022-11-18T03:42:09;3.65;;;2.40;;
65755;SDS011;52489;47.502;18.940;2022-11-18T03:43:17;5.03;;;2.87;;
65755;SDS011;52489;47.502;18.940;2022-11-18T03:44:25;6.62;;;3.08;;
65755;SDS011;52489;47.502;18.940;2022-11-18T03:47:00;5.93;;;2.85;;
65755;SDS011;52489;47.502;18.940;2022-11-18T03:48:19;5.22;;;2.90;;
65755;SDS011;52489;47.502;18.940;2022-11-18T03:49:32;4.78;;;2.92;;
65755;SDS011;52489;47.502;18.940;2022-11-18T03:50:51;5.32;;;2.70;;
65755;SDS011;52489;47.502;18.940;2022-11-18T03:52:06;4.35;;;2.50;;
65755;SDS011;52489;47.502;18.940;2022-11-18T03:53:20;5.00;;;3.33;;
65755;SDS011;52489;47.502;18.940;2022-11-18T03:54:30;4.95;;;2.65;;
65755;SDS011;52489;47.502;18.940;2022-11-18T03:55:40;5.10;;;3.08;;
65755;SDS011;52489;47.502;18.940;2022-11-18T03:56:53;7.85;;;3.95;;
65755;SDS011;52489;47.502;18.940;2022-11-18T03:58:06;6.20;;;2.97;;
65755;SDS011;52489;47.502;18.940;2022-11-18T03:59:36;6.43;;;3.22;;
65755;SDS011;52489;47.502;18.940;2022-11-18T04:00:46;24.52;;;4.50;;
65755;SDS011;52489;47.502;18.940;2022-11-18T04:03:03;23.85;;;5.07;;
65755;SDS011;52489;47.502;18.940;2022-11-18T04:04:06;9.13;;;3.47;;
65755;SDS011;52489;47.502;18.940;2022-11-18T04:05:10;5.93;;;2.70;;
65755;SDS011;52489;47.502;18.940;2022-11-18T04:06:18;4.68;;;2.72;;
65755;SDS011;52489;47.502;18.940;2022-11-18T04:09:02;5.18;;;2.80;;
65755;SDS011;52489;47.502;18.940;2022-11-18T04:10:12;6.50;;;2.65;;
65755;SDS011;52489;47.502;18.940;2022-11-18T04:11:22;3.40;;;2.72;;
65755;SDS011;52489;47.502;18.940;2022-11-18T04:14:05;5.93;;;3.17;;
65755;SDS011;52489;47.502;18.940;2022-11-18T04:15:11;3.62;;;2.53;;
65755;SDS011;52489;47.502;18.940;2022-11-18T04:16:14;5.70;;;2.10;;
65755;SDS011;52489;47.502;18.940;2022-11-18T04:17:22;3.85;;;2.15;;
65755;SDS011;52489;47.502;18.940;2022-11-18T04:18:28;4.87;;;2.60;;
65755;SDS011;52489;47.502;18.940;2022-11-18T04:19:31;6.22;;;3.45;;
65755;SDS011;52489;47.502;18.940;2022-11-18T04:20:38;5.07;;;3.35;;
65755;SDS011;52489;47.502;18.940;2022-11-18T04:21:41;5.35;;;2.25;;
65755;SDS011;52489;47.502;18.940;2022-11-18T04:22:44;4.72;;;1.95;;
65755;SDS011;52489;47.502;18.940;2022-11-18T04:23:47;4.37;;;2.70;;
65755;SDS011;52489;47.502;18.940;2022-11-18T04:24:50;5.00;;;3.20;;
65755;SDS011;52489;47.502;18.940;2022-11-18T04:25:53;6.95;;;3.40;;
65755;SDS011;52489;47.502;18.940;2022-11-18T04:26:56;4.30;;;2.42;;
65755;SDS011;52489;47.502;18.940;2022-11-18T04:27:59;7.93;;;3.33;;
65755;SDS011;52489;47.502;18.940;2022-11-18T04:29:02;5.20;;;2.83;;
65755;SDS011;52489;47.502;18.940;2022-11-18T04:30:06;4.70;;;2.80;;
65755;SDS011;52489;47.502;18.940;2022-11-18T04:31:09;3.97;;;2.50;;
65755;SDS011;52489;47.502;18.940;2022-11-18T04:32:12;4.82;;;2.12;;
65755;SDS011;52489;47.502;18.940;2022-11-18T04:33:15;6.37;;;3.28;;
65755;SDS011;52489;47.502;18.940;2022-11-18T04:34:18;3.55;;;2.10;;
65755;SDS011;52489;47.502;18.940;2022-11-18T04:35:21;5.32;;;2.55;;
65755;SDS011;52489;47.502;18.940;2022-11-18T04:36:24;6.37;;;3.25;;
65755;SDS011;52489;47.502;18.940;2022-11-18T04:37:27;7.20;;;3.55;;
65755;SDS011;52489;47.502;18.940;2022-11-18T04:38:29;5.32;;;2.65;;
65755;SDS011;52489;47.502;18.940;2022-11-18T04:39:32;6.57;;;2.80;;
65755;SDS011;52489;47.502;18.940;2022-11-18T04:40:35;5.70;;;3.20;;
65755;SDS011;52489;47.502;18.940;2022-11-18T04:41:38;8.00;;;3.33;;
65755;SDS011;52489;47.502;18.940;2022-11-18T04:43:00;4.97;;;2.97;;
65755;SDS011;52489;47.502;18.940;2022-11-18T04:44:03;6.37;;;2.83;;
65755;SDS011;52489;47.502;18.940;2022-11-18T04:45:14;5.85;;;3.15;;
65755;SDS011;52489;47.502;18.940;2022-11-18T04:46:17;6.22;;;3.33;;
65755;SDS011;52489;47.502;18.940;2022-11-18T04:47:20;4.72;;;2.72;;
65755;SDS011;52489;47.502;18.940;2022-11-18T04:48:23;4.05;;;2.20;;
65755;SDS011;52489;47.502;18.940;2022-11-18T04:49:26;4.30;;;2.83;;
65755;SDS011;52489;47.502;18.940;2022-11-18T04:50:29;3.67;;;2.75;;
65755;SDS011;52489;47.502;18.940;2022-11-18T04:51:33;5.62;;;3.00;;
65755;SDS011;52489;47.502;18.940;2022-11-18T04:52:36;5.72;;;3.05;;
65755;SDS011;52489;47.502;18.940;2022-11-18T04:53:38;5.32;;;2.97;;
65755;SDS011;52489;47.502;18.940;2022-11-18T04:54:41;6.32;;;3.03;;
65755;SDS011;52489;47.502;18.940;2022-11-18T04:55:44;5.62;;;3.72;;
65755;SDS011;52489;47.502;18.940;2022-11-18T04:56:47;6.65;;;3.33;;
65755;SDS011;52489;47.502;18.940;2022-11-18T04:57:51;8.60;;;3.00;;
65755;SDS011;52489;47.502;18.940;2022-11-18T04:58:54;7.37;;;3.40;;
65755;SDS011;52489;47.502;18.940;2022-11-18T04:59:57;5.93;;;3.22;;
65755;SDS011;52489;47.502;18.940;2022-11-18T05:01:00;4.93;;;3.03;;
65755;SDS011;52489;47.502;18.940;2022-11-18T05:02:03;8.07;;;2.80;;
65755;SDS011;52489;47.502;18.940;2022-11-18T05:03:06;7.50;;;3.58;;
65755;SDS011;52489;47.502;18.940;2022-11-18T05:04:12;6.87;;;2.75;;
65755;SDS011;52489;47.502;18.940;2022-11-18T05:05:18;3.87;;;2.35;;
65755;SDS011;52489;47.502;18.940;2022-11-18T05:06:21;6.18;;;3.28;;
65755;SDS011;52489;47.502;18.940;2022-11-18T05:07:25;4.85;;;2.67;;
65755;SDS011;52489;47.502;18.940;2022-11-18T05:08:28;5.75;;;3.00;;
65755;SDS011;52489;47.502;18.940;2022-11-18T05:09:37;5.62;;;2.65;;
65755;SDS011;52489;47.502;18.940;2022-11-18T05:10:40;9.75;;;3.33;;
65755;SDS011;52489;47.502;18.940;2022-11-18T05:11:46;5.18;;;2.70;;
65755;SDS011;52489;47.502;18.940;2022-11-18T05:13:08;4.95;;;2.45;;
65755;SDS011;52489;47.502;18.940;2022-11-18T05:14:14;4.80;;;2.62;;
65755;SDS011;52489;47.502;18.940;2022-11-18T05:15:18;4.90;;;2.70;;
65755;SDS011;52489;47.502;18.940;2022-11-18T05:16:23;4.45;;;2.62;;
65755;SDS011;52489;47.502;18.940;2022-11-18T05:17:26;3.95;;;2.92;;
65755;SDS011;52489;47.502;18.940;2022-11-18T05:18:29;5.55;;;2.65;;
65755;SDS011;52489;47.502;18.940;2022-11-18T05:19:32;5.97;;;3.45;;
65755;SDS011;52489;47.502;18.940;2022-11-18T05:20:36;5.18;;;2.85;;
65755;SDS011;52489;47.502;18.940;2022-11-18T05:21:43;3.08;;;2.20;;
65755;SDS011;52489;47.502;18.940;2022-11-18T05:22:45;4.95;;;2.60;;
65755;SDS011;52489;47.502;18.940;2022-11-18T05:23:49;8.30;;;3.37;;
65755;SDS011;52489;47.502;18.940;2022-11-18T05:24:52;4.80;;;2.97;;
65755;SDS011;52489;47.502;18.940;2022-11-18T05:25:55;4.53;;;3.17;;
65755;SDS011;52489;47.502;18.940;2022-11-18T05:27:03;6.20;;;3.20;;
65755;SDS011;52489;47.502;18.940;2022-11-18T05:28:06;5.25;;;2.78;;
65755;SDS011;52489;47.502;18.940;2022-11-18T05:29:09;5.37;;;3.55;;
65755;SDS011;52489;47.502;18.940;2022-11-18T05:30:11;5.93;;;3.15;;
65755;SDS011;52489;47.502;18.940;2022-11-18T05:31:15;6.53;;;2.75;;
65755;SDS011;52489;47.502;18.940;2022-11-18T05:32:23;11.18;;;3.45;;
65755;SDS011;52489;47.502;18.940;2022-11-18T05:33:26;6.87;;;2.85;;
65755;SDS011;52489;47.502;18.940;2022-11-18T05:34:29;6.85;;;3.12;;
65755;SDS011;52489;47.502;18.940;2022-11-18T05:35:32;7.22;;;3.67;;
65755;SDS011;52489;47.502;18.940;2022-11-18T05:36:38;7.40;;;3.00;;
65755;SDS011;52489;47.502;18.940;2022-11-18T05:37:41;10.13;;;3.58;;
65755;SDS011;52489;47.502;18.940;2022-11-18T05:38:44;4.97;;;2.87;;
65755;SDS011;52489;47.502;18.940;2022-11-18T05:39:47;7.12;;;3.67;;
65755;SDS011;52489;47.502;18.940;2022-11-18T05:40:49;8.25;;;3.83;;
65755;SDS011;52489;47.502;18.940;2022-11-18T05:41:52;10.40;;;4.05;;
65755;SDS011;52489;47.502;18.940;2022-11-18T05:43:13;5.55;;;2.30;;
65755;SDS011;52489;47.502;18.940;2022-11-18T05:44:16;8.32;;;3.60;;
65755;SDS011;52489;47.502;18.940;2022-11-18T05:45:18;4.45;;;2.58;;
65755;SDS011;52489;47.502;18.940;2022-11-18T05:46:21;5.47;;;3.08;;
65755;SDS011;52489;47.502;18.940;2022-11-18T05:47:24;7.70;;;4.20;;
65755;SDS011;52489;47.502;18.940;2022-11-18T05:48:29;6.78;;;3.55;;
65755;SDS011;52489;47.502;18.940;2022-11-18T05:49:32;4.53;;;3.58;;
65755;SDS011;52489;47.502;18.940;2022-11-18T05:50:36;7.62;;;2.47;;
65755;SDS011;52489;47.502;18.940;2022-11-18T05:51:39;7.35;;;3.10;;
65755;SDS011;52489;47.502;18.940;2022-11-18T05:52:42;7.70;;;3.60;;
65755;SDS011;52489;47.502;18.940;2022-11-18T05:53:44;4.15;;;2.80;;
65755;SDS011;52489;47.502;18.940;2022-11-18T05:54:49;8.13;;;3.65;;
65755;SDS011;52489;47.502;18.940;2022-11-18T05:56:02;6.00;;;3.10;;
65755;SDS011;52489;47.502;18.940;2022-11-18T05:57:11;7.87;;;3.60;;
65755;SDS011;52489;47.502;18.940;2022-11-18T05:58:14;9.63;;;2.87;;
65755;SDS011;52489;47.502;18.940;2022-11-18T05:59:17;5.60;;;3.12;;
65755;SDS011;52489;47.502;18.940;2022-11-18T06:00:20;6.97;;;3.53;;
65755;SDS011;52489;47.502;18.940;2022-11-18T06:01:24;8.38;;;3.55;;
65755;SDS011;52489;47.502;18.940;2022-11-18T06:02:40;5.75;;;3.15;;
65755;SDS011;52489;47.502;18.940;2022-11-18T06:03:45;6.28;;;2.95;;
65755;SDS011;52489;47.502;18.940;2022-11-18T06:04:49;6.25;;;4.18;;
65755;SDS011;52489;47.502;18.940;2022-11-18T06:06:01;7.32;;;3.67;;
65755;SDS011;52489;47.502;18.940;2022-11-18T06:07:08;8.68;;;3.83;;
65755;SDS011;52489;47.502;18.940;2022-11-18T06:08:16;10.85;;;4.15;;
65755;SDS011;52489;47.502;18.940;2022-11-18T06:09:21;7.45;;;4.15;;
65755;SDS011;52489;47.502;18.940;2022-11-18T06:10:28;10.18;;;4.15;;
65755;SDS011;52489;47.502;18.940;2022-11-18T06:11:39;21.80;;;5.93;;
65755;SDS011;52489;47.502;18.940;2022-11-18T06:12:45;7.82;;;3.35;;
65755;SDS011;52489;47.502;18.940;2022-11-18T06:13:58;11.30;;;4.10;;
65755;SDS011;52489;47.502;18.940;2022-11-18T06:15:09;6.80;;;3.47;;
65755;SDS011;52489;47.502;18.940;2022-11-18T06:16:17;7.00;;;3.85;;
65755;SDS011;52489;47.502;18.940;2022-11-18T06:17:25;7.20;;;4.15;;
65755;SDS011;52489;47.502;18.940;2022-11-18T06:18:32;6.72;;;3.87;;
65755;SDS011;52489;47.502;18.940;2022-11-18T06:19:37;6.90;;;3.58;;
65755;SDS011;52489;47.502;18.940;2022-11-18T06:20:40;8.35;;;4.55;;
65755;SDS011;52489;47.502;18.940;2022-11-18T06:21:43;7.43;;;4.22;;
65755;SDS011;52489;47.502;18.940;2022-11-18T06:22:47;6.72;;;3.70;;
65755;SDS011;52489;47.502;18.940;2022-11-18T06:23:52;6.70;;;3.97;;
65755;SDS011;52489;47.502;18.940;2022-11-18T06:24:55;9.63;;;5.50;;
65755;SDS011;52489;47.502;18.940;2022-11-18T06:25:58;8.13;;;3.97;;
65755;SDS011;52489;47.502;18.940;2022-11-18T06:27:01;6.28;;;3.80;;
65755;SDS011;52489;47.502;18.940;2022-11-18T06:28:04;10.07;;;4.45;;
65755;SDS011;52489;47.502;18.940;2022-11-18T06:29:08;8.77;;;3.80;;
65755;SDS011;52489;47.502;18.940;2022-11-18T06:30:14;8.82;;;4.62;;
65755;SDS011;52489;47.502;18.940;2022-11-18T06:31:17;9.10;;;4.53;;
65755;SDS011;52489;47.502;18.940;2022-11-18T06:32:20;8.73;;;4.85;;
65755;SDS011;52489;47.502;18.940;2022-11-18T06:33:23;9.48;;;4.60;;
65755;SDS011;52489;47.502;18.940;2022-11-18T06:34:42;5.25;;;3.22;;
65755;SDS011;52489;47.502;18.940;2022-11-18T06:35:45;8.00;;;3.97;;
65755;SDS011;52489;47.502;18.940;2022-11-18T06:36:48;8.55;;;3.42;;
65755;SDS011;52489;47.502;18.940;2022-11-18T06:37:50;46.70;;;8.52;;
65755;SDS011;52489;47.502;18.940;2022-11-18T06:38:53;6.82;;;4.30;;
65755;SDS011;52489;47.502;18.940;2022-11-18T06:39:56;11.30;;;4.22;;
65755;SDS011;52489;47.502;18.940;2022-11-18T06:41:01;9.75;;;3.90;;
65755;SDS011;52489;47.502;18.940;2022-11-18T06:42:04;7.70;;;4.40;;
65755;SDS011;52489;47.502;18.940;2022-11-18T06:43:07;15.43;;;5.47;;
65755;SDS011;52489;47.502;18.940;2022-11-18T06:44:30;30.48;;;5.57;;
65755;SDS011;52489;47.502;18.940;2022-11-18T06:45:32;7.90;;;3.65;;
65755;SDS011;52489;47.502;18.940;2022-11-18T06:46:35;8.07;;;4.05;;
65755;SDS011;52489;47.502;18.940;2022-11-18T06:47:56;8.52;;;4.35;;
65755;SDS011;52489;47.502;18.940;2022-11-18T06:49:00;6.85;;;3.03;;
65755;SDS011;52489;47.502;18.940;2022-11-18T06:50:04;6.32;;;3.22;;
65755;SDS011;52489;47.502;18.940;2022-11-18T06:51:07;5.60;;;3.42;;
65755;SDS011;52489;47.502;18.940;2022-11-18T06:52:10;6.78;;;3.62;;
65755;SDS011;52489;47.502;18.940;2022-11-18T06:53:12;8.13;;;4.32;;
65755;SDS011;52489;47.502;18.940;2022-11-18T06:54:15;6.87;;;3.55;;
65755;SDS011;52489;47.502;18.940;2022-11-18T06:55:18;8.45;;;3.37;;
65755;SDS011;52489;47.502;18.940;2022-11-18T06:56:21;9.13;;;3.60;;
65755;SDS011;52489;47.502;18.940;2022-11-18T06:57:24;6.68;;;3.50;;
65755;SDS011;52489;47.502;18.940;2022-11-18T06:58:27;9.52;;;3.45;;
65755;SDS011;52489;47.502;18.940;2022-11-18T06:59:29;7.35;;;3.70;;
65755;SDS011;52489;47.502;18.940;2022-11-18T07:00:32;8.35;;;3.78;;
65755;SDS011;52489;47.502;18.940;2022-11-18T07:01:35;6.93;;;3.58;;
65755;SDS011;52489;47.502;18.940;2022-11-18T07:02:40;6.10;;;2.95;;
65755;SDS011;52489;47.502;18.940;2022-11-18T07:03:43;4.80;;;2.90;;
65755;SDS011;52489;47.502;18.940;2022-11-18T07:04:47;4.57;;;2.62;;
65755;SDS011;52489;47.502;18.940;2022-11-18T07:05:49;5.93;;;2.95;;
65755;SDS011;52489;47.502;18.940;2022-11-18T07:06:52;4.93;;;2.40;;